createdAt,value
2023-05-17T00:03:12.140Z,13.53
2023-05-17T00:06:24.726Z,13.53
2023-05-17T00:09:37.320Z,13.46
2023-05-17T00:12:49.842Z,13.59
2023-05-17T00:16:02.443Z,13.66
2023-05-17T00:19:15.550Z,13.64
2023-05-17T00:22:28.814Z,13.63
2023-05-17T00:25:41.315Z,13.66
2023-05-17T00:28:54.041Z,13.66
2023-05-17T00:32:06.559Z,13.59
2023-05-17T00:35:19.179Z,13.63
2023-05-17T00:38:31.944Z,13.66
2023-05-17T00:41:44.613Z,13.65
2023-05-17T00:44:57.073Z,13.61
2023-05-17T00:48:10.309Z,13.54
2023-05-17T00:51:25.484Z,13.55
2023-05-17T00:54:39.106Z,13.55
2023-05-17T00:57:52.285Z,13.44
2023-05-17T01:01:05.893Z,13.41
2023-05-17T01:04:19.070Z,13.50
2023-05-17T01:07:31.934Z,13.51
2023-05-17T01:10:52.220Z,13.55
2023-05-17T01:14:11.572Z,13.53
2023-05-17T01:17:30.201Z,13.48
2023-05-17T01:20:47.705Z,13.49
2023-05-17T01:24:07.730Z,13.54
2023-05-17T01:27:23.158Z,13.55
2023-05-17T01:30:39.257Z,13.53
2023-05-17T01:33:51.974Z,13.44
2023-05-17T01:37:04.514Z,13.51
2023-05-17T01:40:18.315Z,13.49
2023-05-17T01:43:39.119Z,13.42
2023-05-17T01:46:52.271Z,13.34
2023-05-17T01:50:10.179Z,13.35
2023-05-17T01:53:29.503Z,13.35
2023-05-17T01:56:45.590Z,13.33
2023-05-17T01:59:59.506Z,13.39
2023-05-17T02:03:15.412Z,13.44
2023-05-17T02:06:28.083Z,13.46
2023-05-17T02:09:40.455Z,13.43
2023-05-17T02:12:53.178Z,13.33
2023-05-17T02:16:10.047Z,13.27
2023-05-17T02:19:22.524Z,13.29
2023-05-17T02:22:35.216Z,13.35
2023-05-17T02:25:48.153Z,13.36
2023-05-17T02:29:00.630Z,13.29
2023-05-17T02:32:14.375Z,13.24
2023-05-17T02:35:27.281Z,13.18
2023-05-17T02:38:39.990Z,13.05
2023-05-17T02:41:52.565Z,13.05
2023-05-17T02:45:05.277Z,13.08
2023-05-17T02:48:17.895Z,13.15
2023-05-17T02:51:30.465Z,13.09
2023-05-17T02:54:43.691Z,13.13
2023-05-17T02:57:56.262Z,13.12
2023-05-17T03:01:09.756Z,13.03
2023-05-17T03:04:22.501Z,13.02
2023-05-17T03:07:35.198Z,13.04
2023-05-17T03:10:48.156Z,13.02
2023-05-17T03:14:01.504Z,13.03
2023-05-17T03:17:15.860Z,13.03
2023-05-17T03:20:29.380Z,12.97
2023-05-17T03:23:42.363Z,12.85
2023-05-17T03:26:55.076Z,12.84
2023-05-17T03:30:08.477Z,12.76
2023-05-17T03:33:22.203Z,12.80
2023-05-17T03:36:35.829Z,12.71
2023-05-17T03:39:48.302Z,12.69
2023-05-17T03:43:00.834Z,12.73
2023-05-17T03:46:14.816Z,12.70
2023-05-17T03:49:27.335Z,12.66
2023-05-17T03:52:42.215Z,12.69
2023-05-17T03:55:54.872Z,12.66
2023-05-17T03:59:07.376Z,12.67
2023-05-17T04:02:21.334Z,12.65
2023-05-17T04:05:34.104Z,12.69
2023-05-17T04:08:47.042Z,12.74
2023-05-17T04:11:59.968Z,12.75
2023-05-17T04:15:14.608Z,12.70
2023-05-17T04:18:27.485Z,12.68
2023-05-17T04:21:40.325Z,12.70
2023-05-17T04:24:53.223Z,12.62
2023-05-17T04:28:06.162Z,12.66
2023-05-17T04:31:21.197Z,12.59
2023-05-17T04:34:33.939Z,12.63
2023-05-17T04:37:47.674Z,12.63
2023-05-17T04:41:12.481Z,12.68
2023-05-17T04:44:25.510Z,12.67
2023-05-17T04:47:39.019Z,12.73
2023-05-17T04:50:54.590Z,12.70
2023-05-17T04:54:08.996Z,12.75
2023-05-17T04:57:21.758Z,12.73
2023-05-17T05:00:36.446Z,12.67
2023-05-17T05:03:50.164Z,12.67
2023-05-17T05:07:02.998Z,12.65
2023-05-17T05:10:17.347Z,12.70
2023-05-17T05:13:30.163Z,12.79
2023-05-17T05:16:42.724Z,12.85
2023-05-17T05:19:55.567Z,12.89
2023-05-17T05:23:08.465Z,12.90
2023-05-17T05:26:22.695Z,12.92
2023-05-17T05:29:36.036Z,12.90
2023-05-17T05:32:48.807Z,12.90
2023-05-17T05:36:01.691Z,12.91
2023-05-17T05:39:14.437Z,12.93
2023-05-17T05:42:27.913Z,12.87
2023-05-17T05:45:52.099Z,12.81
2023-05-17T05:49:08.588Z,12.81
2023-05-17T05:52:21.349Z,12.94
2023-05-17T05:55:34.236Z,12.97
2023-05-17T05:58:47.078Z,13.00
2023-05-17T06:02:00.098Z,12.96
2023-05-17T06:05:14.270Z,13.00
2023-05-17T06:08:28.220Z,13.02
2023-05-17T06:11:41.148Z,13.01
2023-05-17T06:14:53.569Z,13.03
2023-05-17T06:18:06.432Z,13.04
2023-05-17T06:21:20.660Z,13.12
2023-05-17T06:24:33.430Z,12.98
2023-05-17T06:27:46.623Z,13.10
2023-05-17T06:30:59.334Z,13.12
2023-05-17T06:34:11.833Z,13.09
2023-05-17T06:37:32.396Z,13.16
2023-05-17T06:40:44.904Z,13.22
2023-05-17T06:43:57.469Z,13.23
2023-05-17T06:47:10.309Z,13.20
2023-05-17T06:50:33.173Z,13.23
2023-05-17T06:53:45.978Z,13.19
2023-05-17T06:56:58.588Z,13.18
2023-05-17T07:00:13.599Z,13.16
2023-05-17T07:03:26.797Z,13.20
2023-05-17T07:06:39.459Z,13.14
2023-05-17T07:09:51.955Z,13.11
2023-05-17T07:13:04.837Z,13.19
2023-05-17T07:16:19.916Z,13.24
2023-05-17T07:19:32.603Z,13.25
2023-05-17T07:22:46.722Z,13.28
2023-05-17T07:25:59.161Z,13.27
2023-05-17T07:29:19.517Z,13.26
2023-05-17T07:36:35.076Z,13.11
2023-05-17T07:39:48.864Z,13.22
2023-05-17T07:43:01.580Z,13.21
2023-05-17T07:46:14.393Z,12.98
2023-05-17T07:49:27.836Z,13.15
2023-05-17T07:52:40.654Z,13.20
2023-05-17T07:55:53.133Z,13.23
2023-05-17T07:59:06.143Z,13.26
2023-05-17T08:02:18.886Z,13.26
2023-05-17T08:05:35.044Z,13.25
2023-05-17T08:08:47.978Z,13.11
2023-05-17T08:12:00.600Z,13.16
2023-05-17T08:15:15.093Z,13.14
2023-05-17T08:18:27.871Z,13.18
2023-05-17T08:21:40.618Z,13.18
2023-05-17T08:24:53.194Z,13.11
2023-05-17T08:28:05.877Z,13.11
2023-05-17T08:31:18.421Z,12.95
2023-05-17T08:34:33.667Z,13.11
2023-05-17T08:37:46.368Z,13.16
2023-05-17T08:48:43.748Z,12.98
2023-05-17T08:51:59.698Z,13.12
2023-05-17T08:55:16.796Z,13.19
2023-05-17T08:58:48.098Z,13.22
2023-05-17T09:01:53.164Z,13.23
2023-05-17T09:05:07.048Z,13.14
2023-05-17T12:47:01.808Z,11.85
2023-05-17T12:50:16.515Z,11.77
2023-05-17T13:25:04.493Z,11.32
2023-05-17T13:28:17.549Z,11.41
2023-05-17T13:31:30.193Z,11.40
2023-05-17T13:43:42.902Z,11.34
2023-05-17T13:46:55.456Z,11.35
2023-05-17T13:50:09.740Z,11.31
2023-05-17T13:53:22.589Z,11.07
2023-05-17T13:56:35.905Z,11.00
2023-05-17T13:59:48.490Z,11.07
2023-05-17T14:03:00.998Z,10.99
2023-05-17T14:06:14.390Z,10.99
2023-05-17T14:09:26.853Z,11.00
2023-05-17T14:12:39.493Z,10.98
2023-05-17T14:15:52.021Z,11.02
2023-05-17T14:19:04.926Z,10.96
2023-05-17T14:22:18.275Z,10.83
2023-05-17T14:25:31.211Z,10.90
2023-05-17T14:28:44.116Z,10.90
2023-05-17T14:31:56.693Z,10.72
2023-05-17T14:35:09.939Z,10.69
2023-05-17T14:38:25.028Z,10.72
2023-05-17T14:41:39.517Z,10.72
2023-05-17T14:44:51.808Z,10.83
2023-05-17T14:48:04.674Z,10.78
2023-05-17T14:54:17.855Z,10.49
2023-05-17T14:57:31.577Z,10.73
2023-05-17T15:00:46.954Z,10.46
2023-05-17T15:03:59.720Z,10.68
2023-05-17T15:07:12.656Z,10.50
2023-05-17T15:10:25.520Z,10.64
2023-05-17T15:13:38.504Z,10.62
2023-05-17T15:16:51.389Z,10.61
2023-05-17T16:29:17.068Z,10.33
2023-05-17T19:00:51.787Z,9.89
2023-05-17T19:04:04.237Z,9.96
2023-05-17T19:07:17.251Z,9.98
2023-05-17T19:10:30.133Z,10.00
2023-05-17T19:13:42.920Z,9.97
2023-05-17T19:16:57.138Z,9.93
2023-05-17T20:00:46.698Z,9.92
2023-05-17T20:03:59.409Z,9.82
2023-05-17T20:07:12.255Z,9.80
2023-05-17T20:10:25.166Z,9.81
2023-05-17T20:13:40.332Z,9.80
2023-05-17T20:16:53.249Z,9.76
2023-05-17T20:32:16.832Z,9.74
2023-05-17T20:35:29.573Z,9.77
2023-05-17T20:38:42.356Z,9.79
2023-05-17T20:41:55.095Z,9.82
2023-05-17T20:45:09.152Z,9.83
2023-05-17T20:48:21.802Z,9.83
2023-05-17T20:51:34.435Z,9.83
2023-05-17T20:54:47.023Z,9.83
2023-05-17T20:57:59.614Z,9.87
2023-05-17T21:01:12.099Z,9.89
2023-05-17T21:04:24.676Z,9.79
2023-05-17T21:07:39.418Z,9.85
2023-05-17T21:10:52.114Z,9.92
2023-05-17T21:14:04.713Z,9.90
2023-05-17T21:17:17.374Z,9.93
2023-05-17T21:20:29.910Z,9.95
2023-05-17T21:23:42.360Z,10.00
2023-05-17T21:26:54.842Z,9.95
2023-05-17T21:30:08.268Z,9.99
2023-05-17T21:33:20.664Z,9.99
2023-05-17T21:36:33.158Z,9.97
2023-05-17T21:39:45.669Z,9.96
2023-05-17T21:42:58.106Z,9.98
2023-05-17T21:46:10.932Z,9.98
2023-05-17T21:49:23.564Z,9.95
2023-05-17T21:52:36.229Z,10.00
2023-05-17T21:56:01.185Z,10.02
2023-05-17T21:59:05.134Z,9.97
2023-05-17T22:02:17.746Z,10.00
2023-05-17T22:05:31.013Z,9.91
2023-05-17T22:08:43.715Z,9.99
2023-05-17T22:11:58.366Z,9.93
2023-05-17T22:15:13.870Z,9.92
2023-05-17T22:18:27.288Z,9.87
2023-05-17T22:21:40.336Z,9.85
2023-05-17T22:24:54.149Z,9.84
2023-05-17T22:28:06.854Z,9.86
2023-05-17T22:31:19.894Z,9.86
2023-05-17T22:34:33.147Z,9.84
2023-05-17T22:37:45.974Z,9.87
2023-05-17T22:40:58.626Z,9.82
2023-05-17T22:44:11.435Z,9.79
2023-05-17T22:47:26.056Z,9.80
2023-05-17T22:50:38.982Z,9.81
2023-05-17T22:53:51.845Z,9.84
2023-05-17T22:57:04.566Z,9.78
2023-05-17T23:00:19.911Z,9.80
2023-05-17T23:03:32.534Z,9.83
2023-05-17T23:06:44.965Z,9.82
2023-05-17T23:09:58.307Z,9.83
2023-05-17T23:13:10.886Z,9.79
2023-05-17T23:16:25.573Z,9.81
2023-05-17T23:19:40.733Z,9.82
2023-05-17T23:22:53.390Z,9.78
2023-05-17T23:26:06.155Z,9.76
2023-05-17T23:29:19.229Z,9.73
2023-05-17T23:32:32.608Z,9.74
2023-05-17T23:35:45.252Z,9.74
2023-05-17T23:38:58.003Z,9.73
2023-05-17T23:42:11.061Z,9.70
2023-05-17T23:45:23.794Z,9.71
2023-05-17T23:48:36.459Z,9.72
2023-05-17T23:51:49.140Z,9.72
2023-05-17T23:55:01.775Z,9.69
2023-05-17T23:58:14.475Z,9.70
